Time;durP1;ratioP1;P1;durP2;ratioP2;P2;SDS_P1;SDS_P2;PMS_P1;PMS_P2;Temp;Humidity;BMP_temperature;BMP_pressure;BME280_temperature;BME280_humidity;BME280_pressure;Samples;Min_cycle;Max_cycle;Signal;HPM_P1;HPM_P2
2024/01/18 00:01:32;;;;;;;1999.90;999.90;;;0.10;99.90;;;;;;5032821;28;20575;-68
2024/01/18 00:03:59;;;;;;;1999.90;999.90;;;0.20;99.90;;;;;;5032262;28;20169;-68
2024/01/18 00:06:24;;;;;;;1999.90;999.90;;;0.10;99.90;;;;;;5032088;28;20226;-69
2024/01/18 00:08:50;;;;;;;1999.90;999.90;;;0.00;99.90;;;;;;5032699;28;20200;-68
2024/01/18 00:11:16;;;;;;;1999.90;999.90;;;-0.10;99.90;;;;;;5032176;28;20168;-68
2024/01/18 00:13:42;;;;;;;1999.90;999.90;;;0.00;99.90;;;;;;5032660;28;20176;-68
2024/01/18 00:16:08;;;;;;;1999.90;999.90;;;-0.10;99.90;;;;;;5031782;28;20203;-68
2024/01/18 00:18:34;;;;;;;1999.90;999.90;;;-0.10;99.90;;;;;;5032075;28;20514;-68
2024/01/18 00:20:59;;;;;;;1999.90;999.90;;;-0.30;99.90;;;;;;5031944;28;20255;-68
2024/01/18 00:23:25;;;;;;;1999.90;999.90;;;-0.40;99.90;;;;;;5032362;28;20160;-68
2024/01/18 00:25:51;;;;;;;1999.90;999.90;;;-0.40;99.90;;;;;;5031190;28;20585;-68
2024/01/18 00:28:18;;;;;;;1999.90;999.90;;;-0.60;99.90;;;;;;5032084;28;20301;-69
2024/01/18 00:30:43;;;;;;;1999.90;999.90;;;-0.80;99.90;;;;;;5032221;28;20168;-68
2024/01/18 00:33:09;;;;;;;1999.90;999.90;;;-0.80;99.90;;;;;;5031732;28;20172;-68
2024/01/18 00:35:34;;;;;;;1999.90;999.90;;;-0.90;99.90;;;;;;5031462;28;20196;-68
2024/01/18 00:38:00;;;;;;;1999.90;999.90;;;-1.00;99.90;;;;;;5031962;28;20687;-68
2024/01/18 00:40:26;;;;;;;1999.90;999.90;;;-0.90;99.90;;;;;;5031795;28;20172;-68
2024/01/18 00:42:51;;;;;;;1999.90;999.90;;;-1.10;99.90;;;;;;5032017;28;20255;-67
2024/01/18 00:45:17;;;;;;;1999.90;999.90;;;-1.00;99.90;;;;;;5031439;28;20165;-68
2024/01/18 00:47:44;;;;;;;1999.90;999.90;;;;;;;;;;5031073;28;20176;-68
2024/01/18 00:50:10;;;;;;;1999.90;999.90;;;-1.00;99.90;;;;;;5032168;28;20219;-68
2024/01/18 00:52:35;;;;;;;1999.90;999.90;;;-0.70;99.90;;;;;;5031999;28;20203;-68
2024/01/18 00:55:01;;;;;;;1999.90;999.90;;;-0.60;99.90;;;;;;5030870;28;20204;-68
2024/01/18 00:57:26;;;;;;;1999.90;999.90;;;-0.50;99.90;;;;;;5031718;28;20171;-68
2024/01/18 00:59:53;;;;;;;1999.90;999.90;;;-0.40;99.90;;;;;;5031895;28;20180;-68
2024/01/18 01:02:20;;;;;;;1999.90;999.90;;;-0.40;99.90;;;;;;5031428;28;20577;-68
2024/01/18 01:04:46;;;;;;;1999.90;999.90;;;-0.40;99.90;;;;;;5031295;28;20182;-68
2024/01/18 01:07:11;;;;;;;1999.90;999.90;;;-0.50;99.90;;;;;;5031571;28;20164;-68
2024/01/18 01:09:37;;;;;;;1999.90;999.90;;;-0.50;99.90;;;;;;5031370;28;20188;-69
2024/01/18 01:12:03;;;;;;;1999.90;999.90;;;-0.40;99.90;;;;;;5031725;28;20658;-68
2024/01/18 01:14:28;;;;;;;1999.90;999.90;;;-0.50;99.90;;;;;;5031102;28;20172;-68
2024/01/18 01:16:54;;;;;;;1999.90;999.90;;;-0.50;99.90;;;;;;5031191;28;20844;-68
2024/01/18 01:19:19;;;;;;;1999.90;999.90;;;-0.40;99.90;;;;;;5031641;28;20212;-68
2024/01/18 01:21:45;;;;;;;1999.90;999.90;;;-0.30;99.90;;;;;;5031796;28;20589;-68
2024/01/18 01:24:10;;;;;;;1999.90;999.90;;;-0.40;99.90;;;;;;5030972;28;20656;-68
2024/01/18 01:26:36;;;;;;;1999.90;999.90;;;-0.40;99.90;;;;;;5030902;28;20171;-68
2024/01/18 01:29:02;;;;;;;1999.90;999.90;;;-0.20;99.90;;;;;;5031534;28;20605;-68
2024/01/18 01:31:27;;;;;;;1999.90;999.90;;;-0.30;99.90;;;;;;5031575;28;20164;-68
2024/01/18 01:33:53;;;;;;;1999.90;999.90;;;-0.30;99.90;;;;;;5035648;28;20516;-68
2024/01/18 01:36:18;;;;;;;1999.90;999.90;;;-0.40;99.90;;;;;;5034749;28;20330;-68
2024/01/18 01:38:44;;;;;;;1999.90;999.90;;;-0.50;99.90;;;;;;5034830;28;20180;-68
2024/01/18 01:41:10;;;;;;;1999.90;999.90;;;-0.70;99.90;;;;;;5035349;28;20581;-68
2024/01/18 01:43:35;;;;;;;1999.90;999.90;;;-0.80;99.90;;;;;;5035325;28;20171;-68
2024/01/18 01:46:01;;;;;;;1999.90;999.90;;;-0.80;99.90;;;;;;5034411;28;20176;-68
2024/01/18 01:48:26;;;;;;;1999.90;999.90;;;-0.90;99.90;;;;;;5034790;28;20633;-68
2024/01/18 01:50:52;;;;;;;1999.90;999.90;;;-0.90;99.90;;;;;;5035573;28;20172;-68
2024/01/18 01:53:20;;;;;;;1999.90;999.90;;;-1.00;99.90;;;;;;5035127;28;20172;-68
2024/01/18 01:55:46;;;;;;;1999.90;999.90;;;-0.50;99.90;;;;;;5033959;28;20200;-68
2024/01/18 01:58:15;;;;;;;1999.90;999.90;;;-1.10;99.90;;;;;;5034833;28;20535;-68
2024/01/18 02:00:41;;;;;;;1999.90;999.90;;;-1.10;99.90;;;;;;5035016;28;20702;-70
2024/01/18 02:03:08;;;;;;;1999.90;999.90;;;-1.00;99.90;;;;;;5034531;28;20165;-68
2024/01/18 02:05:34;;;;;;;1999.90;999.90;;;-1.00;99.90;;;;;;5034347;28;20587;-68
2024/01/18 02:08:00;;;;;;;1999.90;999.90;;;;;;;;;;5034743;28;20168;-68
2024/01/18 02:10:27;;;;;;;1999.90;999.90;;;-1.20;99.90;;;;;;5034317;28;20195;-68
2024/01/18 02:12:53;;;;;;;1999.90;999.90;;;-0.90;99.90;;;;;;5034700;28;20173;-67
2024/01/18 02:15:19;;;;;;;1999.90;999.90;;;-1.00;99.90;;;;;;5034090;28;20239;-68
2024/01/18 02:17:45;;;;;;;1999.90;999.90;;;;;;;;;;5033932;28;20640;-68
2024/01/18 02:20:11;;;;;;;1999.90;999.90;;;-1.10;99.90;;;;;;5034831;28;20251;-68
2024/01/18 02:22:42;;;;;;;1999.90;999.90;;;-0.80;99.90;;;;;;5034564;28;20252;-68
2024/01/18 02:25:28;;;;;;;1999.90;999.90;;;-0.80;99.90;;;;;;5033506;28;20196;-68
2024/01/18 02:27:57;;;;;;;1999.90;999.90;;;-1.10;99.90;;;;;;5034590;28;20259;-68
2024/01/18 02:30:23;;;;;;;1999.90;999.90;;;-0.90;99.90;;;;;;5034354;28;20256;-67
2024/01/18 02:32:49;;;;;;;1999.90;999.90;;;-0.90;99.90;;;;;;5034132;28;20219;-67
2024/01/18 02:35:16;;;;;;;1999.90;999.90;;;-1.00;99.90;;;;;;5033757;28;20196;-67
2024/01/18 02:37:42;;;;;;;1999.90;999.90;;;;;;;;;;5034085;28;20578;-68
2024/01/18 02:40:08;;;;;;;1999.90;999.90;;;-0.90;99.90;;;;;;5033822;28;20551;-67
2024/01/18 02:42:33;;;;;;;1999.90;999.90;;;-1.10;99.90;;;;;;5034080;28;20198;-67
2024/01/18 02:45:02;;;;;;;1999.90;999.90;;;-0.80;99.90;;;;;;5033697;28;20168;-67
2024/01/18 02:47:28;;;;;;;1999.90;999.90;;;-0.80;99.90;;;;;;5033417;28;20196;-67
2024/01/18 02:49:55;;;;;;;1999.90;999.90;;;-0.90;99.90;;;;;;5034212;28;20193;-66
2024/01/18 02:52:21;;;;;;;1999.90;999.90;;;-0.90;99.90;;;;;;5033968;28;20837;-68
2024/01/18 02:54:46;;;;;;;1999.90;999.90;;;-0.90;99.90;;;;;;5032946;28;20279;-67
2024/01/18 02:57:12;;;;;;;1999.90;999.90;;;-0.90;99.90;;;;;;5033785;28;20688;-66
2024/01/18 02:59:37;;;;;;;1999.90;999.90;;;-1.00;99.90;;;;;;5034011;28;20188;-67
2024/01/18 03:02:03;;;;;;;1999.90;999.90;;;-1.00;99.90;;;;;;5033548;28;20658;-68
2024/01/18 03:04:28;;;;;;;1999.90;999.90;;;-0.80;99.90;;;;;;5033328;28;20175;-68
2024/01/18 03:06:54;;;;;;;1999.90;999.90;;;-0.70;99.90;;;;;;5033639;28;20175;-67
2024/01/18 03:09:20;;;;;;;1999.90;999.90;;;-0.70;99.90;;;;;;5033155;28;20230;-68
2024/01/18 03:11:45;;;;;;;1999.90;999.90;;;-0.80;99.90;;;;;;5033738;28;20194;-67
2024/01/18 03:14:11;;;;;;;1999.90;999.90;;;-0.70;99.90;;;;;;5033660;28;20746;-69
2024/01/18 03:16:42;;;;;;;1999.90;999.90;;;-0.70;99.90;;;;;;5032605;28;20807;-69
2024/01/18 03:19:11;;;;;;;1999.90;999.90;;;-0.60;99.90;;;;;;5033461;28;20427;-68
2024/01/18 03:21:37;;;;;;;1999.90;999.90;;;-0.60;99.90;;;;;;5033496;28;20169;-68
2024/01/18 03:24:03;;;;;;;1999.90;999.90;;;-0.80;99.90;;;;;;5032998;28;20214;-68
2024/01/18 03:26:28;;;;;;;1999.90;999.90;;;-0.80;99.90;;;;;;5032774;28;20653;-68
2024/01/18 03:28:54;;;;;;;1999.90;999.90;;;-0.60;99.90;;;;;;5033247;28;20188;-68
2024/01/18 03:31:20;;;;;;;1999.90;999.90;;;-0.60;99.90;;;;;;5032932;28;20532;-68
2024/01/18 03:33:46;;;;;;;1999.90;999.90;;;-0.60;99.90;;;;;;5033305;28;20173;-68
2024/01/18 03:36:11;;;;;;;1999.90;999.90;;;-0.80;99.90;;;;;;5032461;28;20205;-68
2024/01/18 03:38:37;;;;;;;1999.90;999.90;;;-0.70;99.90;;;;;;5032571;28;20266;-68
2024/01/18 03:41:03;;;;;;;1999.90;999.90;;;-0.70;99.90;;;;;;5033233;28;20168;-68
2024/01/18 03:43:29;;;;;;;1999.90;999.90;;;-0.70;99.90;;;;;;5033119;28;20176;-68
2024/01/18 03:45:54;;;;;;;1999.90;999.90;;;-0.70;99.90;;;;;;5031939;28;20177;-68
2024/01/18 03:48:20;;;;;;;1999.90;999.90;;;-0.70;99.90;;;;;;5032768;28;20204;-68
2024/01/18 03:50:45;;;;;;;1999.90;999.90;;;-0.70;99.90;;;;;;5032997;28;20222;-68
2024/01/18 03:53:11;;;;;;;1999.90;999.90;;;-0.70;99.90;;;;;;5032441;28;20759;-68
2024/01/18 03:55:37;;;;;;;1999.90;999.90;;;-0.70;99.90;;;;;;5031539;28;20208;-68
2024/01/18 03:58:03;;;;;;;1999.90;999.90;;;-0.50;99.90;;;;;;5032727;28;20738;-68
2024/01/18 04:00:29;;;;;;;1999.90;999.90;;;-0.70;99.90;;;;;;5032277;28;20939;-67
2024/01/18 04:02:54;;;;;;;1999.90;999.90;;;-0.50;99.90;;;;;;5032721;28;20437;-67
2024/01/18 04:05:20;;;;;;;1999.90;999.90;;;-0.60;99.90;;;;;;5032078;28;20199;-69
2024/01/18 04:07:46;;;;;;;1999.90;999.90;;;;;;;;;;5031868;28;20248;-68
2024/01/18 04:10:12;;;;;;;1999.90;999.90;;;-0.90;99.90;;;;;;5032602;28;20179;-68
2024/01/18 04:12:38;;;;;;;1999.90;999.90;;;-0.70;99.90;;;;;;5032473;28;20415;-68
2024/01/18 04:15:04;;;;;;;1999.90;999.90;;;-0.70;99.90;;;;;;5031727;28;20579;-68
2024/01/18 04:17:29;;;;;;;1999.90;999.90;;;-0.90;99.90;;;;;;5032252;28;20164;-67
2024/01/18 04:19:55;;;;;;;1999.90;999.90;;;-0.80;99.90;;;;;;5032363;28;20211;-67
2024/01/18 04:22:22;;;;;;;1999.90;999.90;;;-0.80;99.90;;;;;;5031823;28;20171;-67
2024/01/18 04:24:48;;;;;;;1999.90;999.90;;;-0.80;99.90;;;;;;5031794;28;20251;-69
2024/01/18 04:27:14;;;;;;;1999.90;999.90;;;-0.90;99.90;;;;;;5032074;28;20259;-69
2024/01/18 04:29:41;;;;;;;1999.90;999.90;;;-0.80;99.90;;;;;;5031833;28;20939;-67
2024/01/18 04:32:07;;;;;;;1999.90;999.90;;;-0.80;99.90;;;;;;5032235;28;20172;-67
2024/01/18 04:34:33;;;;;;;1999.90;999.90;;;-0.50;99.90;;;;;;5031465;28;20187;-67
2024/01/18 04:36:59;;;;;;;1999.90;999.90;;;-0.80;99.90;;;;;;5031547;28;20173;-70
2024/01/18 04:39:24;;;;;;;1999.90;999.90;;;-0.70;99.90;;;;;;5032151;28;20823;-68
2024/01/18 04:41:50;;;;;;;1999.90;999.90;;;-0.80;99.90;;;;;;5032185;28;20164;-67
2024/01/18 04:44:16;;;;;;;1999.90;999.90;;;-0.60;99.90;;;;;;5031637;28;20191;-66
2024/01/18 04:46:41;;;;;;;1999.90;999.90;;;-0.70;99.90;;;;;;5031360;28;20172;-68
2024/01/18 04:49:07;;;;;;;1999.90;999.90;;;-0.70;99.90;;;;;;5031732;28;20757;-68
2024/01/18 04:51:33;;;;;;;1999.90;999.90;;;-0.70;99.90;;;;;;5031522;28;20160;-69
2024/01/18 04:53:59;;;;;;;1999.90;999.90;;;-0.70;99.90;;;;;;5031933;28;20222;-67
2024/01/18 04:56:25;;;;;;;1999.90;999.90;;;-0.70;99.90;;;;;;5028525;28;20291;-67
2024/01/18 04:58:50;;;;;;;1999.90;999.90;;;-0.70;99.90;;;;;;5031126;28;20842;-67
2024/01/18 05:01:17;;;;;;;1999.90;999.90;;;-0.70;99.90;;;;;;5031888;28;20176;-68
2024/01/18 05:03:43;;;;;;;1999.90;999.90;;;-0.50;99.90;;;;;;5031801;28;20172;-68
2024/01/18 05:06:09;;;;;;;1999.90;999.90;;;-0.60;99.90;;;;;;5030516;28;20180;-68
2024/01/18 05:08:34;;;;;;;1999.90;999.90;;;-0.40;99.90;;;;;;5031799;28;20238;-68
2024/01/18 05:11:00;;;;;;;1999.90;999.90;;;-0.60;99.90;;;;;;5031801;28;20403;-68
2024/01/18 05:13:26;;;;;;;1999.90;999.90;;;-0.50;99.90;;;;;;5031244;28;20632;-68
2024/01/18 05:15:52;;;;;;;1999.90;999.90;;;-0.50;99.90;;;;;;5031011;28;20619;-68
2024/01/18 05:18:18;;;;;;;1999.90;999.90;;;-0.50;99.90;;;;;;5031588;28;20286;-68
2024/01/18 05:20:44;;;;;;;1999.90;999.90;;;-0.40;99.90;;;;;;5031283;28;20670;-68
2024/01/18 05:23:09;;;;;;;1999.90;999.90;;;-0.50;99.90;;;;;;5031746;28;20176;-68
2024/01/18 05:25:35;;;;;;;1999.90;999.90;;;-0.60;99.90;;;;;;5031112;28;20259;-68
2024/01/18 05:28:01;;;;;;;1999.90;999.90;;;;;;;;;;5031390;28;20542;-68
2024/01/18 05:30:27;;;;;;;1999.90;999.90;;;-0.90;99.90;;;;;;5031583;28;20248;-68
2024/01/18 05:32:52;;;;;;;1999.90;999.90;;;-0.70;99.90;;;;;;5031670;28;20653;-67
2024/01/18 05:35:18;;;;;;;1999.90;999.90;;;-0.60;99.90;;;;;;5030871;28;20196;-67
2024/01/18 05:37:44;;;;;;;1999.90;999.90;;;;;;;;;;5030765;28;20176;-67
2024/01/18 05:40:11;;;;;;;1999.90;999.90;;;-0.70;99.90;;;;;;5031737;28;20423;-67
2024/01/18 05:42:36;;;;;;;1999.90;999.90;;;-0.70;99.90;;;;;;5031580;28;20177;-67
2024/01/18 05:45:02;;;;;;;1999.90;999.90;;;-0.40;99.90;;;;;;5030584;28;20644;-68
2024/01/18 05:47:28;;;;;;;1999.90;999.90;;;-0.70;99.90;;;;;;5031067;28;20184;-69
2024/01/18 05:49:53;;;;;;;1999.90;999.90;;;-0.50;99.90;;;;;;5031363;28;20692;-68
2024/01/18 05:52:19;;;;;;;1999.90;999.90;;;-0.60;99.90;;;;;;5030968;28;20252;-67
2024/01/18 05:54:44;;;;;;;1999.90;999.90;;;-0.70;99.90;;;;;;5030702;28;20225;-67
2024/01/18 05:57:10;;;;;;;1999.90;999.90;;;-0.70;99.90;;;;;;5031235;28;20176;-67
2024/01/18 05:59:35;;;;;;;1999.90;999.90;;;-0.60;99.90;;;;;;5030847;28;20227;-67
2024/01/18 06:02:01;;;;;;;1999.90;999.90;;;-0.60;99.90;;;;;;5031352;28;20163;-70
2024/01/18 06:04:30;;;;;;;1999.90;999.90;;;-0.20;99.90;;;;;;5030721;28;20579;-69
2024/01/18 06:06:56;;;;;;;1999.90;999.90;;;-0.40;99.90;;;;;;5030655;28;20160;-69
2024/01/18 06:09:22;;;;;;;1999.90;999.90;;;-0.70;99.90;;;;;;5031065;28;20192;-69
2024/01/18 06:11:48;;;;;;;1999.90;999.90;;;-0.50;99.90;;;;;;5031221;28;20184;-69
2024/01/18 06:14:15;;;;;;;1999.90;999.90;;;-0.60;99.90;;;;;;5030830;28;20263;-69
2024/01/18 06:16:41;;;;;;;1999.90;999.90;;;-0.50;99.90;;;;;;5030460;28;20242;-70
2024/01/18 06:19:06;;;;;;;1999.90;999.90;;;-0.40;99.90;;;;;;5033717;28;20184;-68
2024/01/18 06:21:32;;;;;;;1999.90;999.90;;;-0.50;99.90;;;;;;5034140;28;20919;-68
2024/01/18 06:23:58;;;;;;;1999.90;999.90;;;-0.50;99.90;;;;;;5017127;28;20180;-69
2024/01/18 06:26:23;;;;;;;1999.90;999.90;;;-0.40;99.90;;;;;;5013935;28;20551;-69
2024/01/18 06:28:49;;;;;;;1999.90;999.90;;;-0.40;99.90;;;;;;5014149;28;20618;-69
2024/01/18 06:31:14;;;;;;;1999.90;999.90;;;-0.40;99.90;;;;;;5014779;28;20515;-69
2024/01/18 06:33:41;;;;;;;1999.90;999.90;;;-0.50;99.90;;;;;;5014632;28;20165;-70
2024/01/18 06:36:11;;;;;;;1999.90;999.90;;;-0.40;99.90;;;;;;5013399;28;20243;-68
2024/01/18 06:38:36;;;;;;;1999.90;999.90;;;-0.40;99.90;;;;;;5014413;28;20182;-68
2024/01/18 06:41:02;;;;;;;1999.90;999.90;;;-0.30;99.90;;;;;;5014645;28;20176;-70
2024/01/18 06:43:28;;;;;;;1999.90;999.90;;;-0.20;99.90;;;;;;5014080;28;20176;-70
2024/01/18 06:45:55;;;;;;;1999.90;999.90;;;-0.20;99.90;;;;;;5013813;28;20183;-69
2024/01/18 06:48:24;;;;;;;1999.90;999.90;;;0.00;99.90;;;;;;5014281;28;20734;-68
2024/01/18 06:50:50;;;;;;;1999.90;999.90;;;0.00;99.90;;;;;;5013861;28;20663;-69
2024/01/18 06:53:16;;;;;;;1999.90;999.90;;;-0.10;99.90;;;;;;5014326;28;20184;-67
2024/01/18 06:55:42;;;;;;;1999.90;999.90;;;0.00;99.90;;;;;;5013298;28;20201;-69
2024/01/18 06:58:07;;;;;;;1999.90;999.90;;;-0.30;99.90;;;;;;5013339;28;20196;-68
2024/01/18 07:00:33;;;;;;;1999.90;999.90;;;-0.20;99.90;;;;;;5014275;28;20641;-67
2024/01/18 07:02:59;;;;;;;1999.90;999.90;;;-0.20;99.90;;;;;;5014037;28;20203;-69
2024/01/18 07:05:25;;;;;;;1999.90;999.90;;;-0.10;99.90;;;;;;5012624;28;20176;-69
2024/01/18 07:07:51;;;;;;;1999.90;999.90;;;;;;;;;;5013686;28;20415;-67
2024/01/18 07:10:20;;;;;;;1999.90;999.90;;;-0.30;99.90;;;;;;5014060;28;20165;-67
2024/01/18 07:12:46;;;;;;;1999.90;999.90;;;-0.20;99.90;;;;;;5013431;28;20256;-67
2024/01/18 07:15:12;;;;;;;1999.90;999.90;;;-0.30;99.90;;;;;;5013304;28;20332;-67
2024/01/18 07:17:38;;;;;;;1999.90;999.90;;;-0.40;99.90;;;;;;5013468;28;20416;-68
2024/01/18 07:20:04;;;;;;;1999.90;999.90;;;-0.40;99.90;;;;;;5013338;28;20427;-67
2024/01/18 07:22:30;;;;;;;1999.90;999.90;;;-0.60;99.90;;;;;;5013676;28;20175;-68
2024/01/18 07:24:56;;;;;;;1999.90;999.90;;;-0.60;99.90;;;;;;5013134;28;20177;-67
2024/01/18 07:27:21;;;;;;;1999.90;999.90;;;-0.60;99.90;;;;;;5013086;28;20173;-68
2024/01/18 07:29:50;;;;;;;1999.90;999.90;;;-0.60;99.90;;;;;;5012486;28;20807;-66
2024/01/18 07:32:18;;;;;;;1999.90;999.90;;;-0.50;99.90;;;;;;5013493;28;20244;-68
2024/01/18 07:34:44;;;;;;;1999.90;999.90;;;-0.60;99.90;;;;;;5012454;28;20575;-67
2024/01/18 07:37:13;;;;;;;1999.90;999.90;;;-0.50;99.90;;;;;;5013249;28;20165;-67
2024/01/18 07:39:40;;;;;;;1999.90;999.90;;;-0.80;99.90;;;;;;5013402;28;20185;-67
2024/01/18 07:42:06;;;;;;;1999.90;999.90;;;-0.60;99.90;;;;;;5012883;28;20177;-67
2024/01/18 07:44:32;;;;;;;1999.90;999.90;;;-0.70;99.90;;;;;;5012845;28;20200;-67
2024/01/18 07:46:58;;;;;;;1999.90;999.90;;;-0.80;99.90;;;;;;5013232;28;20220;-68
2024/01/18 07:49:23;;;;;;;1999.90;999.90;;;-0.40;99.90;;;;;;5013059;28;20704;-68
2024/01/18 07:51:50;;;;;;;1999.90;999.90;;;-0.90;99.90;;;;;;5013203;28;20193;-68
2024/01/18 07:54:15;;;;;;;1999.90;999.90;;;-0.80;99.90;;;;;;5013205;28;20170;-67
2024/01/18 07:56:41;;;;;;;1999.90;999.90;;;-0.90;99.90;;;;;;5011963;28;20197;-68
2024/01/18 07:59:08;;;;;;;1999.90;999.90;;;-1.00;99.90;;;;;;5012930;28;20211;-68
2024/01/18 08:01:33;;;;;;;1999.90;999.90;;;-1.20;99.90;;;;;;5013189;28;20294;-68
2024/01/18 08:03:59;;;;;;;1999.90;999.90;;;-1.20;99.90;;;;;;5012539;28;20534;-68
2024/01/18 08:06:25;;;;;;;1999.90;999.90;;;-1.40;99.90;;;;;;5015608;28;20168;-67
2024/01/18 08:08:51;;;;;;;1999.90;999.90;;;-1.50;99.90;;;;;;5032421;28;20289;-67
2024/01/18 08:11:16;;;;;;;1999.90;999.90;;;-1.60;99.90;;;;;;5032100;28;20875;-66
2024/01/18 08:13:42;;;;;;;1999.90;999.90;;;-1.40;99.90;;;;;;5020996;28;20290;-69
2024/01/18 08:16:09;;;;;;;1999.90;999.90;;;-1.50;99.90;;;;;;5031724;28;20204;-66
2024/01/18 08:18:35;;;;;;;1999.90;999.90;;;-1.70;99.90;;;;;;5013759;28;20197;-67
2024/01/18 08:21:01;;;;;;;1999.90;999.90;;;-1.80;99.90;;;;;;5012654;28;20177;-68
2024/01/18 08:23:26;;;;;;;1999.90;999.90;;;-1.80;99.90;;;;;;5012805;28;20180;-68
2024/01/18 08:25:52;;;;;;;1999.90;999.90;;;-2.00;99.90;;;;;;5011562;28;20204;-67
2024/01/18 08:28:18;;;;;;;1999.90;999.90;;;-2.20;99.90;;;;;;5012455;28;20295;-67
2024/01/18 08:30:47;;;;;;;1999.90;999.90;;;-2.40;99.90;;;;;;5012704;28;20474;-68
2024/01/18 08:33:12;;;;;;;1999.90;999.90;;;-2.40;99.90;;;;;;5012110;28;20248;-66
2024/01/18 08:35:38;;;;;;;1999.90;999.90;;;-2.50;99.90;;;;;;5011774;28;20347;-66
2024/01/18 08:38:04;;;;;;;1999.90;999.90;;;-2.60;99.90;;;;;;5012339;28;20191;-66
2024/01/18 08:40:30;;;;;;;1999.90;999.90;;;-2.50;99.90;;;;;;5011572;28;20167;-67
2024/01/18 08:42:56;;;;;;;1999.90;999.90;;;-2.40;99.90;;;;;;5012250;28;20248;-67
2024/01/18 08:45:22;;;;;;;1999.90;999.90;;;-2.40;99.90;;;;;;5011904;28;20552;-67
2024/01/18 08:47:48;;;;;;;1999.90;999.90;;;;;;;;;;5011890;28;20276;-69
2024/01/18 08:50:17;;;;;;;1999.90;999.90;;;-2.70;99.90;;;;;;5012136;28;20263;-68
2024/01/18 08:52:43;;;;;;;1999.90;999.90;;;-2.30;99.90;;;;;;5012319;28;20831;-67
2024/01/18 08:55:08;;;;;;;1999.90;999.90;;;-2.30;99.90;;;;;;5011628;28;20201;-68
2024/01/18 08:57:35;;;;;;;1999.90;999.90;;;-2.20;99.90;;;;;;5011469;28;20227;-67
2024/01/18 09:00:00;;;;;;;1999.90;999.90;;;-2.20;99.90;;;;;;5012040;28;20735;-68
2024/01/18 09:02:26;;;;;;;1999.90;999.90;;;-2.10;99.90;;;;;;5012108;28;20169;-68
2024/01/18 09:04:52;;;;;;;1999.90;999.90;;;-1.90;99.90;;;;;;5012174;28;20211;-68
2024/01/18 09:07:18;;;;;;;1999.90;999.90;;;-1.70;99.90;;;;;;5013126;28;20220;-68
2024/01/18 09:09:44;;;;;;;1999.90;999.90;;;-1.70;99.90;;;;;;5012032;28;20196;-68
2024/01/18 09:12:11;;;;;;;1999.90;999.90;;;-1.40;99.90;;;;;;5011484;28;20215;-68
2024/01/18 09:14:36;;;;;;;1999.90;999.90;;;-1.30;99.90;;;;;;5011370;28;20248;-68
2024/01/18 09:17:02;;;;;;;1999.90;999.90;;;-0.90;99.90;;;;;;5011703;28;20169;-68
2024/01/18 09:19:30;;;;;;;1999.90;999.90;;;-1.40;99.90;;;;;;5011349;28;20177;-68
2024/01/18 09:21:56;;;;;;;1999.90;999.90;;;-1.10;99.90;;;;;;5029848;28;20175;-67
2024/01/18 09:24:22;;;;;;;1999.90;999.90;;;-1.10;99.90;;;;;;5031162;28;20207;-68
2024/01/18 09:26:48;;;;;;;1999.90;999.90;;;-1.00;99.90;;;;;;5030913;28;20172;-68
2024/01/18 09:29:14;;;;;;;1999.90;999.90;;;-0.80;99.90;;;;;;5031412;28;20415;-69
2024/01/18 09:31:39;;;;;;;1999.90;999.90;;;-0.80;99.90;;;;;;5031599;28;20194;-69
2024/01/18 09:34:05;;;;;;;1999.90;999.90;;;-0.70;99.90;;;;;;5013424;28;20183;-70
2024/01/18 09:36:30;;;;;;;1999.90;999.90;;;-0.90;99.90;;;;;;5030763;28;20223;-68
2024/01/18 09:38:56;;;;;;;1999.90;999.90;;;-0.90;99.90;;;;;;5031343;28;20218;-68
2024/01/18 09:41:21;;;;;;;1999.90;999.90;;;-1.00;99.90;;;;;;5030996;28;20165;-67
2024/01/18 09:43:54;;;;;;;1999.90;999.90;;;-1.10;99.90;;;;;;5031622;28;20623;-69
2024/01/18 09:46:22;;;;;;;1999.90;999.90;;;-1.00;99.90;;;;;;5030936;28;20767;-69
2024/01/18 09:48:48;;;;;;;1999.90;999.90;;;-1.00;99.90;;;;;;5030661;28;20204;-69
2024/01/18 09:51:15;;;;;;;1999.90;999.90;;;-1.00;99.90;;;;;;5031398;28;20206;-69
2024/01/18 09:53:48;;;;;;;1999.90;999.90;;;-1.00;99.90;;;;;;5033647;28;20640;-68
2024/01/18 09:56:29;;;;;;;1999.90;999.90;;;-0.90;99.90;;;;;;5033916;28;20212;-68
2024/01/18 09:58:58;;;;;;;1999.90;999.90;;;-0.70;99.90;;;;;;5034937;28;20207;-68
2024/01/18 10:01:24;;;;;;;1999.90;999.90;;;-0.70;99.90;;;;;;5035055;28;20263;-69
2024/01/18 10:03:50;;;;;;;1999.90;999.90;;;-0.30;99.90;;;;;;5034638;28;20604;-68
2024/01/18 10:06:19;;;;;;;1999.90;999.90;;;-0.60;99.90;;;;;;5034413;28;20184;-69
2024/01/18 10:08:47;;;;;;;1999.90;999.90;;;-0.40;99.90;;;;;;5034854;28;20193;-69
2024/01/18 10:11:12;;;;;;;1999.90;999.90;;;-0.30;1.00;;;;;;5034624;28;20226;-68
2024/01/18 10:13:54;;;;;;;1999.90;999.90;;;-0.10;1.00;;;;;;5034998;28;20674;-66
2024/01/18 10:16:32;;;;;;;1999.90;999.90;;;0.00;1.00;;;;;;5034155;28;20788;-67
2024/01/18 10:19:00;;;;;;;1999.90;999.90;;;0.20;1.00;;;;;;5034123;28;20701;-67
2024/01/18 10:21:26;;;;;;;1999.90;999.90;;;0.20;1.00;;;;;;5034537;28;20172;-67
2024/01/18 10:23:53;;;;;;;1999.90;999.90;;;0.30;1.00;;;;;;5029310;28;20169;-68
2024/01/18 10:26:22;;;;;;;1999.90;999.90;;;0.30;1.00;;;;;;5009736;28;20782;-68
2024/01/18 10:28:49;;;;;;;1999.90;999.90;;;0.00;99.90;;;;;;5017954;28;20671;-69
2024/01/18 10:31:14;;;;;;;1999.90;999.90;;;0.50;1.00;;;;;;5034547;28;20828;-68
2024/01/18 10:33:40;;;;;;;1999.90;999.90;;;0.10;1.00;;;;;;5034255;28;20183;-69
2024/01/18 10:36:06;;;;;;;1999.90;999.90;;;-0.20;10.60;;;;;;5033556;28;20457;-69
2024/01/18 10:38:32;;;;;;;1999.90;999.90;;;0.10;99.90;;;;;;5034190;28;20569;-69
2024/01/18 10:41:00;;;;;;;1999.90;999.90;;;0.10;99.90;;;;;;5033897;28;20173;-68
2024/01/18 10:43:30;;;;;;;1999.90;999.90;;;0.00;29.50;;;;;;5000322;28;20427;-68
2024/01/18 10:45:57;;;;;;;1999.90;999.90;;;0.50;4.40;;;;;;5033454;28;20183;-67
2024/01/18 10:48:22;;;;;;;1999.90;999.90;;;0.60;92.20;;;;;;5030931;28;20271;-68
2024/01/18 10:50:53;;;;;;;1999.90;999.90;;;0.70;1.00;;;;;;5025936;28;20227;-69
2024/01/18 10:53:20;;;;;;;1999.90;999.90;;;0.80;1.00;;;;;;5033874;28;20461;-69
2024/01/18 10:55:46;;;;;;;1999.90;999.90;;;0.90;99.90;;;;;;5022600;28;20204;-68
2024/01/18 10:58:12;;;;;;;1999.90;999.90;;;0.90;46.80;;;;;;5029963;28;20192;-68
2024/01/18 11:00:37;;;;;;;1999.90;999.90;;;0.70;82.60;;;;;;5013826;28;20671;-67
2024/01/18 11:03:03;;;;;;;1999.90;999.90;;;0.70;1.00;;;;;;5013317;28;20173;-67
2024/01/18 11:05:30;;;;;;;1999.90;999.90;;;0.60;99.90;;;;;;5028877;28;20539;-68
2024/01/18 11:07:57;;;;;;;1999.90;999.90;;;0.80;99.90;;;;;;5015130;28;20269;-68
2024/01/18 11:10:23;;;;;;;1999.90;999.90;;;1.00;1.00;;;;;;5012977;28;20189;-68
2024/01/18 11:12:49;;;;;;;1999.90;999.90;;;0.80;1.00;;;;;;5013521;28;20260;-68
2024/01/18 11:15:16;;;;;;;1999.90;999.90;;;1.20;99.90;;;;;;5013102;28;20197;-68
2024/01/18 11:17:52;;;;;;;1999.90;999.90;;;1.80;1.00;;;;;;5013098;28;20180;-68
2024/01/18 11:20:18;;;;;;;1999.90;999.90;;;2.00;99.90;;;;;;5013675;28;20177;-68
2024/01/18 11:22:45;;;;;;;1999.90;999.90;;;2.40;99.90;;;;;;5031015;28;20603;-68
2024/01/18 11:25:21;;;;;;;1999.90;999.90;;;2.50;99.90;;;;;;5012333;28;20177;-68
2024/01/18 11:27:47;;;;;;;1999.90;999.90;;;2.60;1.00;;;;;;5013234;28;20275;-68
2024/01/18 11:30:40;;;;;;;1999.90;999.90;;;2.70;99.90;;;;;;5013416;28;20592;-68
2024/01/18 11:33:07;;;;;;;1999.90;999.90;;;2.80;99.90;;;;;;5009933;28;20269;-68
2024/01/18 11:35:34;;;;;;;1999.90;999.90;;;3.60;1.00;;;;;;5012622;28;20613;-69
2024/01/18 11:38:24;;;;;;;1999.90;999.90;;;5.00;99.90;;;;;;5012869;28;20264;-68
2024/01/18 11:40:51;;;;;;;1999.90;999.90;;;5.40;92.10;;;;;;5013179;28;20434;-69
2024/01/18 11:43:17;;;;;;;1999.90;999.90;;;6.40;99.90;;;;;;5013119;28;20416;-69
2024/01/18 11:45:47;;;;;;;1999.90;999.90;;;7.30;99.90;;;;;;5011972;28;20455;-69
2024/01/18 11:48:13;;;;;;;1999.90;999.90;;;8.30;1.00;;;;;;5012599;28;20443;-69
2024/01/18 11:50:39;;;;;;;1999.90;999.90;;;8.50;99.90;;;;;;5013195;28;20433;-69
2024/01/18 11:53:08;;;;;;;1999.90;999.90;;;9.10;99.90;;;;;;5012457;28;20413;-68
2024/01/18 11:55:41;;;;;;;1999.90;999.90;;;9.50;14.40;;;;;;5018989;28;20510;-68
2024/01/18 11:58:08;;;;;;;1999.90;999.90;;;9.60;1.00;;;;;;5021886;28;20478;-69
2024/01/18 12:00:33;;;;;;;1999.90;999.90;;;10.00;1.00;;;;;;5012778;28;20546;-69